sensor_id;sensor_type;location;lat;lon;timestamp;P1;durP1;ratioP1;P2;durP2;ratioP2
2658;SDS011;1339;53.304;10.406;2022-07-03T00:00:07;4.80;;;3.43;;
2658;SDS011;1339;53.304;10.406;2022-07-03T00:02:36;3.87;;;3.57;;
2658;SDS011;1339;53.304;10.406;2022-07-03T00:05:03;2.83;;;2.63;;
2658;SDS011;1339;53.304;10.406;2022-07-03T00:07:31;3.60;;;3.07;;
2658;SDS011;1339;53.304;10.406;2022-07-03T00:09:58;2.87;;;2.77;;
2658;SDS011;1339;53.304;10.406;2022-07-03T00:12:25;3.30;;;3.00;;
2658;SDS011;1339;53.304;10.406;2022-07-03T00:14:52;3.40;;;3.20;;
2658;SDS011;1339;53.304;10.406;2022-07-03T00:17:19;3.17;;;2.97;;
2658;SDS011;1339;53.304;10.406;2022-07-03T00:19:48;3.43;;;3.03;;
2658;SDS011;1339;53.304;10.406;2022-07-03T00:22:15;2.50;;;2.40;;
2658;SDS011;1339;53.304;10.406;2022-07-03T00:24:42;2.23;;;2.13;;
2658;SDS011;1339;53.304;10.406;2022-07-03T00:27:10;2.97;;;2.77;;
2658;SDS011;1339;53.304;10.406;2022-07-03T00:29:38;2.60;;;2.40;;
2658;SDS011;1339;53.304;10.406;2022-07-03T00:32:08;2.60;;;2.40;;
2658;SDS011;1339;53.304;10.406;2022-07-03T00:34:35;2.83;;;2.63;;
2658;SDS011;1339;53.304;10.406;2022-07-03T00:37:04;2.53;;;2.33;;
2658;SDS011;1339;53.304;10.406;2022-07-03T00:39:33;2.83;;;2.60;;
2658;SDS011;1339;53.304;10.406;2022-07-03T00:42:02;2.13;;;2.03;;
2658;SDS011;1339;53.304;10.406;2022-07-03T00:44:29;2.40;;;2.20;;
2658;SDS011;1339;53.304;10.406;2022-07-03T00:46:57;2.57;;;2.17;;
2658;SDS011;1339;53.304;10.406;2022-07-03T00:49:25;2.50;;;2.23;;
2658;SDS011;1339;53.304;10.406;2022-07-03T00:51:52;2.60;;;2.40;;
2658;SDS011;1339;53.304;10.406;2022-07-03T00:54:21;2.50;;;2.30;;
2658;SDS011;1339;53.304;10.406;2022-07-03T00:56:50;2.63;;;2.27;;
2658;SDS011;1339;53.304;10.406;2022-07-03T00:59:17;2.07;;;1.97;;
2658;SDS011;1339;53.304;10.406;2022-07-03T01:01:45;3.73;;;2.33;;
2658;SDS011;1339;53.304;10.406;2022-07-03T01:04:17;2.27;;;2.17;;
2658;SDS011;1339;53.304;10.406;2022-07-03T01:06:49;2.33;;;2.20;;
2658;SDS011;1339;53.304;10.406;2022-07-03T01:09:18;1.93;;;1.83;;
2658;SDS011;1339;53.304;10.406;2022-07-03T01:11:51;2.07;;;1.80;;
2658;SDS011;1339;53.304;10.406;2022-07-03T01:14:27;2.33;;;2.07;;
2658;SDS011;1339;53.304;10.406;2022-07-03T01:16:55;2.77;;;2.57;;
2658;SDS011;1339;53.304;10.406;2022-07-03T01:19:35;1.80;;;1.70;;
2658;SDS011;1339;53.304;10.406;2022-07-03T01:22:09;4.00;;;1.70;;
2658;SDS011;1339;53.304;10.406;2022-07-03T01:24:48;4.10;;;2.27;;
2658;SDS011;1339;53.304;10.406;2022-07-03T01:27:26;2.60;;;2.37;;
2658;SDS011;1339;53.304;10.406;2022-07-03T01:29:56;2.40;;;2.20;;
2658;SDS011;1339;53.304;10.406;2022-07-03T01:32:30;5.10;;;2.10;;
2658;SDS011;1339;53.304;10.406;2022-07-03T01:34:59;2.50;;;2.30;;
2658;SDS011;1339;53.304;10.406;2022-07-03T01:37:27;1.80;;;1.70;;
2658;SDS011;1339;53.304;10.406;2022-07-03T01:39:57;2.00;;;1.90;;
2658;SDS011;1339;53.304;10.406;2022-07-03T01:42:25;2.10;;;1.90;;
2658;SDS011;1339;53.304;10.406;2022-07-03T01:44:55;2.20;;;2.00;;
2658;SDS011;1339;53.304;10.406;2022-07-03T01:47:23;1.90;;;1.80;;
2658;SDS011;1339;53.304;10.406;2022-07-03T01:49:51;2.33;;;2.23;;
2658;SDS011;1339;53.304;10.406;2022-07-03T01:52:19;1.93;;;1.83;;
2658;SDS011;1339;53.304;10.406;2022-07-03T01:54:47;2.37;;;2.00;;
2658;SDS011;1339;53.304;10.406;2022-07-03T01:57:14;2.00;;;1.90;;
2658;SDS011;1339;53.304;10.406;2022-07-03T01:59:43;1.73;;;1.63;;
2658;SDS011;1339;53.304;10.406;2022-07-03T02:02:13;2.80;;;2.20;;
2658;SDS011;1339;53.304;10.406;2022-07-03T02:04:44;1.97;;;1.83;;
2658;SDS011;1339;53.304;10.406;2022-07-03T02:07:20;2.60;;;1.73;;
2658;SDS011;1339;53.304;10.406;2022-07-03T02:09:48;1.77;;;1.67;;
2658;SDS011;1339;53.304;10.406;2022-07-03T02:12:18;2.00;;;1.90;;
2658;SDS011;1339;53.304;10.406;2022-07-03T02:14:48;2.00;;;1.90;;
2658;SDS011;1339;53.304;10.406;2022-07-03T02:17:17;3.50;;;2.23;;
2658;SDS011;1339;53.304;10.406;2022-07-03T02:19:47;2.20;;;2.10;;
2658;SDS011;1339;53.304;10.406;2022-07-03T02:22:18;2.60;;;2.40;;
2658;SDS011;1339;53.304;10.406;2022-07-03T02:24:46;1.93;;;1.83;;
2658;SDS011;1339;53.304;10.406;2022-07-03T02:27:15;2.57;;;2.37;;
2658;SDS011;1339;53.304;10.406;2022-07-03T02:29:43;2.80;;;2.23;;
2658;SDS011;1339;53.304;10.406;2022-07-03T02:32:15;2.47;;;2.37;;
2658;SDS011;1339;53.304;10.406;2022-07-03T02:34:45;3.70;;;2.40;;
2658;SDS011;1339;53.304;10.406;2022-07-03T02:37:14;2.70;;;2.50;;
2658;SDS011;1339;53.304;10.406;2022-07-03T02:39:43;2.60;;;2.40;;
2658;SDS011;1339;53.304;10.406;2022-07-03T02:42:14;2.57;;;2.37;;
2658;SDS011;1339;53.304;10.406;2022-07-03T02:44:46;2.87;;;2.23;;
2658;SDS011;1339;53.304;10.406;2022-07-03T02:47:20;2.80;;;2.60;;
2658;SDS011;1339;53.304;10.406;2022-07-03T02:49:50;2.10;;;1.90;;
2658;SDS011;1339;53.304;10.406;2022-07-03T02:52:28;3.03;;;2.60;;
2658;SDS011;1339;53.304;10.406;2022-07-03T02:54:59;3.30;;;3.10;;
2658;SDS011;1339;53.304;10.406;2022-07-03T02:57:26;3.30;;;2.73;;
2658;SDS011;1339;53.304;10.406;2022-07-03T03:00:01;3.13;;;2.93;;
2658;SDS011;1339;53.304;10.406;2022-07-03T03:02:38;3.30;;;3.00;;
2658;SDS011;1339;53.304;10.406;2022-07-03T03:05:11;2.20;;;2.10;;
2658;SDS011;1339;53.304;10.406;2022-07-03T03:07:41;2.10;;;2.00;;
2658;SDS011;1339;53.304;10.406;2022-07-03T03:10:12;2.40;;;2.30;;
2658;SDS011;1339;53.304;10.406;2022-07-03T03:12:41;2.63;;;2.27;;
2658;SDS011;1339;53.304;10.406;2022-07-03T03:15:12;2.60;;;2.50;;
2658;SDS011;1339;53.304;10.406;2022-07-03T03:17:41;2.90;;;2.40;;
2658;SDS011;1339;53.304;10.406;2022-07-03T03:20:09;2.87;;;2.53;;
2658;SDS011;1339;53.304;10.406;2022-07-03T03:22:45;2.93;;;2.73;;
2658;SDS011;1339;53.304;10.406;2022-07-03T03:25:17;3.00;;;2.87;;
2658;SDS011;1339;53.304;10.406;2022-07-03T03:27:44;3.40;;;3.10;;
2658;SDS011;1339;53.304;10.406;2022-07-03T03:30:11;3.10;;;2.90;;
2658;SDS011;1339;53.304;10.406;2022-07-03T03:32:39;2.97;;;2.80;;
2658;SDS011;1339;53.304;10.406;2022-07-03T03:35:08;2.97;;;2.77;;
2658;SDS011;1339;53.304;10.406;2022-07-03T03:37:35;3.07;;;2.87;;
2658;SDS011;1339;53.304;10.406;2022-07-03T03:40:02;2.80;;;2.70;;
2658;SDS011;1339;53.304;10.406;2022-07-03T03:42:30;2.67;;;2.57;;
2658;SDS011;1339;53.304;10.406;2022-07-03T03:44:57;2.53;;;2.33;;
2658;SDS011;1339;53.304;10.406;2022-07-03T03:47:25;3.13;;;2.93;;
2658;SDS011;1339;53.304;10.406;2022-07-03T03:49:52;3.03;;;2.83;;
2658;SDS011;1339;53.304;10.406;2022-07-03T03:52:21;2.83;;;2.63;;
2658;SDS011;1339;53.304;10.406;2022-07-03T03:54:48;2.67;;;2.47;;
2658;SDS011;1339;53.304;10.406;2022-07-03T03:57:16;2.83;;;2.63;;
2658;SDS011;1339;53.304;10.406;2022-07-03T03:59:43;3.00;;;2.90;;
2658;SDS011;1339;53.304;10.406;2022-07-03T04:02:11;2.93;;;2.73;;
2658;SDS011;1339;53.304;10.406;2022-07-03T04:04:38;4.63;;;4.07;;
2658;SDS011;1339;53.304;10.406;2022-07-03T04:07:06;3.07;;;2.87;;
2658;SDS011;1339;53.304;10.406;2022-07-03T04:09:34;3.03;;;2.80;;
2658;SDS011;1339;53.304;10.406;2022-07-03T04:12:02;2.90;;;2.70;;
2658;SDS011;1339;53.304;10.406;2022-07-03T04:14:29;3.13;;;2.90;;
2658;SDS011;1339;53.304;10.406;2022-07-03T04:16:56;3.13;;;2.93;;
2658;SDS011;1339;53.304;10.406;2022-07-03T04:19:23;2.40;;;2.30;;
2658;SDS011;1339;53.304;10.406;2022-07-03T04:21:51;3.30;;;3.10;;
2658;SDS011;1339;53.304;10.406;2022-07-03T04:24:18;3.77;;;3.47;;
2658;SDS011;1339;53.304;10.406;2022-07-03T04:26:46;4.83;;;2.80;;
2658;SDS011;1339;53.304;10.406;2022-07-03T04:29:13;3.60;;;3.30;;
2658;SDS011;1339;53.304;10.406;2022-07-03T04:31:40;3.20;;;3.00;;
2658;SDS011;1339;53.304;10.406;2022-07-03T04:34:08;5.67;;;3.30;;
2658;SDS011;1339;53.304;10.406;2022-07-03T04:36:35;3.17;;;2.97;;
2658;SDS011;1339;53.304;10.406;2022-07-03T04:39:02;4.73;;;3.30;;
2658;SDS011;1339;53.304;10.406;2022-07-03T04:41:29;5.40;;;4.90;;
2658;SDS011;1339;53.304;10.406;2022-07-03T04:43:57;3.30;;;3.00;;
2658;SDS011;1339;53.304;10.406;2022-07-03T04:46:24;3.60;;;3.30;;
2658;SDS011;1339;53.304;10.406;2022-07-03T04:48:52;3.43;;;3.20;;
2658;SDS011;1339;53.304;10.406;2022-07-03T04:51:19;3.47;;;3.23;;
2658;SDS011;1339;53.304;10.406;2022-07-03T04:53:46;3.80;;;3.60;;
2658;SDS011;1339;53.304;10.406;2022-07-03T04:56:13;3.40;;;3.20;;
2658;SDS011;1339;53.304;10.406;2022-07-03T04:58:40;3.50;;;3.30;;
2658;SDS011;1339;53.304;10.406;2022-07-03T05:01:08;3.20;;;3.00;;
2658;SDS011;1339;53.304;10.406;2022-07-03T05:03:36;3.33;;;3.13;;
2658;SDS011;1339;53.304;10.406;2022-07-03T05:06:03;4.50;;;3.53;;
2658;SDS011;1339;53.304;10.406;2022-07-03T05:08:30;2.60;;;2.50;;
2658;SDS011;1339;53.304;10.406;2022-07-03T05:10:57;3.30;;;3.00;;
2658;SDS011;1339;53.304;10.406;2022-07-03T05:13:25;3.37;;;3.17;;
2658;SDS011;1339;53.304;10.406;2022-07-03T05:15:52;3.50;;;3.00;;
2658;SDS011;1339;53.304;10.406;2022-07-03T05:18:21;2.77;;;2.50;;
2658;SDS011;1339;53.304;10.406;2022-07-03T05:20:48;3.50;;;3.20;;
2658;SDS011;1339;53.304;10.406;2022-07-03T05:23:15;3.50;;;3.20;;
2658;SDS011;1339;53.304;10.406;2022-07-03T05:25:42;3.63;;;3.33;;
2658;SDS011;1339;53.304;10.406;2022-07-03T05:28:09;3.50;;;3.20;;
2658;SDS011;1339;53.304;10.406;2022-07-03T05:30:36;3.50;;;3.30;;
2658;SDS011;1339;53.304;10.406;2022-07-03T05:33:04;3.30;;;3.10;;
2658;SDS011;1339;53.304;10.406;2022-07-03T05:35:32;3.07;;;2.87;;
2658;SDS011;1339;53.304;10.406;2022-07-03T05:37:59;3.00;;;2.80;;
2658;SDS011;1339;53.304;10.406;2022-07-03T05:40:26;4.20;;;3.57;;
2658;SDS011;1339;53.304;10.406;2022-07-03T05:42:53;3.00;;;2.80;;
2658;SDS011;1339;53.304;10.406;2022-07-03T05:45:21;4.27;;;3.17;;
2658;SDS011;1339;53.304;10.406;2022-07-03T05:47:48;6.10;;;3.00;;
2658;SDS011;1339;53.304;10.406;2022-07-03T05:50:15;3.07;;;2.87;;
2658;SDS011;1339;53.304;10.406;2022-07-03T05:52:43;3.00;;;2.80;;
2658;SDS011;1339;53.304;10.406;2022-07-03T05:55:10;3.13;;;2.93;;
2658;SDS011;1339;53.304;10.406;2022-07-03T05:57:37;3.30;;;3.00;;
2658;SDS011;1339;53.304;10.406;2022-07-03T06:00:05;2.63;;;2.43;;
2658;SDS011;1339;53.304;10.406;2022-07-03T06:02:32;3.67;;;3.37;;
2658;SDS011;1339;53.304;10.406;2022-07-03T06:04:59;2.93;;;2.73;;
2658;SDS011;1339;53.304;10.406;2022-07-03T06:07:27;4.17;;;2.87;;
2658;SDS011;1339;53.304;10.406;2022-07-03T06:09:55;3.77;;;3.47;;
2658;SDS011;1339;53.304;10.406;2022-07-03T06:12:22;3.23;;;3.03;;
2658;SDS011;1339;53.304;10.406;2022-07-03T06:14:49;4.00;;;2.60;;
2658;SDS011;1339;53.304;10.406;2022-07-03T06:17:16;2.83;;;2.63;;
2658;SDS011;1339;53.304;10.406;2022-07-03T06:19:43;2.73;;;2.53;;
2658;SDS011;1339;53.304;10.406;2022-07-03T06:22:10;2.87;;;2.73;;
2658;SDS011;1339;53.304;10.406;2022-07-03T06:24:38;2.97;;;2.77;;
2658;SDS011;1339;53.304;10.406;2022-07-03T06:27:06;3.40;;;2.30;;
2658;SDS011;1339;53.304;10.406;2022-07-03T06:29:33;3.07;;;2.87;;
2658;SDS011;1339;53.304;10.406;2022-07-03T06:32:00;3.77;;;3.47;;
2658;SDS011;1339;53.304;10.406;2022-07-03T06:34:27;3.30;;;3.00;;
2658;SDS011;1339;53.304;10.406;2022-07-03T06:36:54;2.60;;;2.40;;
2658;SDS011;1339;53.304;10.406;2022-07-03T06:39:22;3.40;;;3.00;;
2658;SDS011;1339;53.304;10.406;2022-07-03T06:41:49;6.33;;;2.80;;
2658;SDS011;1339;53.304;10.406;2022-07-03T06:44:17;3.50;;;2.87;;
2658;SDS011;1339;53.304;10.406;2022-07-03T06:46:44;3.20;;;2.90;;
2658;SDS011;1339;53.304;10.406;2022-07-03T06:49:11;3.00;;;2.80;;
2658;SDS011;1339;53.304;10.406;2022-07-03T06:51:38;2.80;;;2.60;;
2658;SDS011;1339;53.304;10.406;2022-07-03T06:54:06;4.43;;;2.83;;
2658;SDS011;1339;53.304;10.406;2022-07-03T06:56:33;2.90;;;2.70;;
2658;SDS011;1339;53.304;10.406;2022-07-03T06:59:00;3.20;;;2.90;;
2658;SDS011;1339;53.304;10.406;2022-07-03T07:01:28;3.03;;;2.73;;
2658;SDS011;1339;53.304;10.406;2022-07-03T07:03:55;2.77;;;2.57;;
2658;SDS011;1339;53.304;10.406;2022-07-03T07:06:23;3.00;;;2.80;;
2658;SDS011;1339;53.304;10.406;2022-07-03T07:08:50;3.23;;;2.80;;
2658;SDS011;1339;53.304;10.406;2022-07-03T07:11:17;3.60;;;2.40;;
2658;SDS011;1339;53.304;10.406;2022-07-03T07:13:44;2.90;;;2.70;;
2658;SDS011;1339;53.304;10.406;2022-07-03T07:16:11;2.47;;;2.33;;
2658;SDS011;1339;53.304;10.406;2022-07-03T07:18:40;3.20;;;2.90;;
2658;SDS011;1339;53.304;10.406;2022-07-03T07:21:07;3.33;;;3.03;;
2658;SDS011;1339;53.304;10.406;2022-07-03T07:23:35;3.00;;;2.80;;
2658;SDS011;1339;53.304;10.406;2022-07-03T07:26:02;3.03;;;2.83;;
2658;SDS011;1339;53.304;10.406;2022-07-03T07:28:29;2.23;;;2.13;;
2658;SDS011;1339;53.304;10.406;2022-07-03T07:30:58;3.57;;;2.40;;
2658;SDS011;1339;53.304;10.406;2022-07-03T07:33:25;3.00;;;2.80;;
2658;SDS011;1339;53.304;10.406;2022-07-03T07:35:53;3.03;;;2.83;;
2658;SDS011;1339;53.304;10.406;2022-07-03T07:38:21;3.13;;;2.83;;
2658;SDS011;1339;53.304;10.406;2022-07-03T07:40:48;2.50;;;2.30;;
2658;SDS011;1339;53.304;10.406;2022-07-03T07:43:15;4.80;;;2.00;;
2658;SDS011;1339;53.304;10.406;2022-07-03T07:45:42;2.73;;;2.53;;
2658;SDS011;1339;53.304;10.406;2022-07-03T07:48:09;4.10;;;2.43;;
2658;SDS011;1339;53.304;10.406;2022-07-03T07:50:36;6.60;;;2.80;;
2658;SDS011;1339;53.304;10.406;2022-07-03T07:53:05;3.20;;;2.90;;
2658;SDS011;1339;53.304;10.406;2022-07-03T07:55:32;2.73;;;2.53;;
2658;SDS011;1339;53.304;10.406;2022-07-03T07:57:59;4.67;;;2.80;;
2658;SDS011;1339;53.304;10.406;2022-07-03T08:00:26;2.57;;;2.37;;
2658;SDS011;1339;53.304;10.406;2022-07-03T08:02:53;2.40;;;2.30;;
2658;SDS011;1339;53.304;10.406;2022-07-03T08:05:38;2.77;;;2.57;;
2658;SDS011;1339;53.304;10.406;2022-07-03T08:08:08;2.87;;;2.67;;
2658;SDS011;1339;53.304;10.406;2022-07-03T08:10:36;2.30;;;2.13;;
2658;SDS011;1339;53.304;10.406;2022-07-03T08:13:03;2.50;;;2.30;;
2658;SDS011;1339;53.304;10.406;2022-07-03T08:15:30;2.17;;;1.97;;
2658;SDS011;1339;53.304;10.406;2022-07-03T08:17:57;3.10;;;2.37;;
2658;SDS011;1339;53.304;10.406;2022-07-03T08:20:24;2.90;;;2.70;;
2658;SDS011;1339;53.304;10.406;2022-07-03T08:22:51;2.33;;;2.23;;
2658;SDS011;1339;53.304;10.406;2022-07-03T08:25:20;2.40;;;2.30;;
2658;SDS011;1339;53.304;10.406;2022-07-03T08:27:47;2.20;;;2.10;;
2658;SDS011;1339;53.304;10.406;2022-07-03T08:30:14;2.90;;;2.70;;
2658;SDS011;1339;53.304;10.406;2022-07-03T08:32:42;2.47;;;2.33;;
2658;SDS011;1339;53.304;10.406;2022-07-03T08:35:10;3.30;;;3.03;;
2658;SDS011;1339;53.304;10.406;2022-07-03T08:37:37;2.10;;;2.00;;
2658;SDS011;1339;53.304;10.406;2022-07-03T08:40:07;2.43;;;2.23;;
2658;SDS011;1339;53.304;10.406;2022-07-03T08:42:37;2.27;;;2.07;;
2658;SDS011;1339;53.304;10.406;2022-07-03T08:45:05;3.10;;;2.27;;
2658;SDS011;1339;53.304;10.406;2022-07-03T08:47:33;2.53;;;2.37;;
2658;SDS011;1339;53.304;10.406;2022-07-03T08:50:00;1.70;;;1.60;;
2658;SDS011;1339;53.304;10.406;2022-07-03T08:52:28;2.00;;;1.90;;
2658;SDS011;1339;53.304;10.406;2022-07-03T08:54:55;2.50;;;2.30;;
2658;SDS011;1339;53.304;10.406;2022-07-03T08:57:23;1.90;;;1.80;;
2658;SDS011;1339;53.304;10.406;2022-07-03T08:59:52;2.20;;;2.00;;
2658;SDS011;1339;53.304;10.406;2022-07-03T09:02:20;3.53;;;2.57;;
2658;SDS011;1339;53.304;10.406;2022-07-03T09:04:48;2.40;;;2.30;;
2658;SDS011;1339;53.304;10.406;2022-07-03T09:07:16;2.40;;;2.20;;
2658;SDS011;1339;53.304;10.406;2022-07-03T09:09:44;2.17;;;2.07;;
2658;SDS011;1339;53.304;10.406;2022-07-03T09:12:12;2.33;;;2.13;;
2658;SDS011;1339;53.304;10.406;2022-07-03T09:14:39;2.17;;;1.80;;
2658;SDS011;1339;53.304;10.406;2022-07-03T09:17:08;1.97;;;1.87;;
2658;SDS011;1339;53.304;10.406;2022-07-03T09:19:39;3.00;;;1.80;;
2658;SDS011;1339;53.304;10.406;2022-07-03T09:22:13;2.27;;;2.07;;
2658;SDS011;1339;53.304;10.406;2022-07-03T09:24:43;2.80;;;2.07;;
2658;SDS011;1339;53.304;10.406;2022-07-03T09:27:10;2.53;;;2.33;;
2658;SDS011;1339;53.304;10.406;2022-07-03T09:29:45;2.80;;;2.53;;
2658;SDS011;1339;53.304;10.406;2022-07-03T09:32:18;3.40;;;3.20;;
2658;SDS011;1339;53.304;10.406;2022-07-03T09:34:48;2.03;;;1.93;;
2658;SDS011;1339;53.304;10.406;2022-07-03T09:37:23;2.93;;;2.70;;
2658;SDS011;1339;53.304;10.406;2022-07-03T09:39:55;2.47;;;2.37;;
2658;SDS011;1339;53.304;10.406;2022-07-03T09:42:23;2.20;;;2.10;;
2658;SDS011;1339;53.304;10.406;2022-07-03T09:44:51;2.70;;;1.80;;
2658;SDS011;1339;53.304;10.406;2022-07-03T09:47:22;1.77;;;1.63;;
2658;SDS011;1339;53.304;10.406;2022-07-03T09:49:51;2.50;;;2.30;;
2658;SDS011;1339;53.304;10.406;2022-07-03T09:52:32;2.37;;;2.27;;
2658;SDS011;1339;53.304;10.406;2022-07-03T09:55:01;2.37;;;2.17;;
2658;SDS011;1339;53.304;10.406;2022-07-03T09:57:28;2.30;;;2.20;;
2658;SDS011;1339;53.304;10.406;2022-07-03T10:00:12;2.20;;;2.00;;
2658;SDS011;1339;53.304;10.406;2022-07-03T10:02:57;2.57;;;2.37;;
2658;SDS011;1339;53.304;10.406;2022-07-03T10:05:25;2.50;;;2.23;;
2658;SDS011;1339;53.304;10.406;2022-07-03T10:07:53;3.30;;;2.20;;
2658;SDS011;1339;53.304;10.406;2022-07-03T10:10:21;2.03;;;1.93;;
2658;SDS011;1339;53.304;10.406;2022-07-03T10:12:48;2.67;;;2.47;;
2658;SDS011;1339;53.304;10.406;2022-07-03T10:15:16;2.27;;;2.10;;
2658;SDS011;1339;53.304;10.406;2022-07-03T10:17:45;2.70;;;2.50;;
2658;SDS011;1339;53.304;10.406;2022-07-03T10:20:15;2.10;;;2.00;;
2658;SDS011;1339;53.304;10.406;2022-07-03T10:22:46;3.00;;;2.10;;
2658;SDS011;1339;53.304;10.406;2022-07-03T10:25:14;2.60;;;2.50;;
2658;SDS011;1339;53.304;10.406;2022-07-03T10:27:43;2.20;;;1.87;;
2658;SDS011;1339;53.304;10.406;2022-07-03T10:30:11;2.57;;;2.17;;
2658;SDS011;1339;53.304;10.406;2022-07-03T10:32:38;2.13;;;1.93;;
2658;SDS011;1339;53.304;10.406;2022-07-03T10:35:06;1.93;;;1.83;;
2658;SDS011;1339;53.304;10.406;2022-07-03T10:37:38;2.43;;;1.93;;
2658;SDS011;1339;53.304;10.406;2022-07-03T10:40:10;2.63;;;2.43;;
2658;SDS011;1339;53.304;10.406;2022-07-03T10:43:06;2.00;;;1.90;;
2658;SDS011;1339;53.304;10.406;2022-07-03T10:46:10;2.40;;;2.20;;
2658;SDS011;1339;53.304;10.406;2022-07-03T10:51:50;2.40;;;2.20;;
2658;SDS011;1339;53.304;10.406;2022-07-03T10:54:19;2.20;;;2.00;;
2658;SDS011;1339;53.304;10.406;2022-07-03T11:02:17;2.17;;;2.07;;
2658;SDS011;1339;53.304;10.406;2022-07-03T11:07:31;3.20;;;2.90;;
2658;SDS011;1339;53.304;10.406;2022-07-03T11:12:54;2.63;;;2.30;;
2658;SDS011;1339;53.304;10.406;2022-07-03T11:15:24;3.77;;;1.70;;
2658;SDS011;1339;53.304;10.406;2022-07-03T11:18:06;2.00;;;1.80;;
2658;SDS011;1339;53.304;10.406;2022-07-03T11:20:34;1.90;;;1.70;;
2658;SDS011;1339;53.304;10.406;2022-07-03T11:23:03;3.77;;;2.27;;
2658;SDS011;1339;53.304;10.406;2022-07-03T11:25:37;2.37;;;1.93;;
2658;SDS011;1339;53.304;10.406;2022-07-03T11:28:06;2.43;;;2.07;;
2658;SDS011;1339;53.304;10.406;2022-07-03T11:30:34;1.70;;;1.60;;
2658;SDS011;1339;53.304;10.406;2022-07-03T11:33:01;3.90;;;2.57;;
2658;SDS011;1339;53.304;10.406;2022-07-03T11:35:47;1.90;;;1.80;;
2658;SDS011;1339;53.304;10.406;2022-07-03T11:38:17;2.00;;;1.90;;
2658;SDS011;1339;53.304;10.406;2022-07-03T11:40:45;2.53;;;1.93;;
2658;SDS011;1339;53.304;10.406;2022-07-03T11:43:15;2.40;;;2.20;;
2658;SDS011;1339;53.304;10.406;2022-07-03T11:45:42;2.20;;;2.00;;
2658;SDS011;1339;53.304;10.406;2022-07-03T11:48:11;2.47;;;2.13;;
2658;SDS011;1339;53.304;10.406;2022-07-03T11:50:39;2.23;;;2.03;;
2658;SDS011;1339;53.304;10.406;2022-07-03T11:53:23;2.03;;;1.70;;
2658;SDS011;1339;53.304;10.406;2022-07-03T11:55:51;1.73;;;1.40;;
2658;SDS011;1339;53.304;10.406;2022-07-03T11:58:19;2.43;;;2.00;;
2658;SDS011;1339;53.304;10.406;2022-07-03T12:00:47;2.17;;;1.97;;
2658;SDS011;1339;53.304;10.406;2022-07-03T12:03:16;1.60;;;1.50;;
2658;SDS011;1339;53.304;10.406;2022-07-03T12:05:53;3.83;;;1.93;;
2658;SDS011;1339;53.304;10.406;2022-07-03T12:08:21;2.03;;;1.83;;
2658;SDS011;1339;53.304;10.406;2022-07-03T12:10:49;3.50;;;1.80;;
2658;SDS011;1339;53.304;10.406;2022-07-03T12:13:21;1.47;;;1.37;;
2658;SDS011;1339;53.304;10.406;2022-07-03T12:15:48;1.50;;;1.40;;
2658;SDS011;1339;53.304;10.406;2022-07-03T12:18:15;1.87;;;1.30;;
2658;SDS011;1339;53.304;10.406;2022-07-03T12:20:42;1.60;;;1.40;;
2658;SDS011;1339;53.304;10.406;2022-07-03T12:23:09;1.77;;;1.40;;
2658;SDS011;1339;53.304;10.406;2022-07-03T12:25:38;1.43;;;1.33;;
2658;SDS011;1339;53.304;10.406;2022-07-03T12:28:05;2.23;;;1.53;;
2658;SDS011;1339;53.304;10.406;2022-07-03T12:30:34;1.53;;;1.30;;
2658;SDS011;1339;53.304;10.406;2022-07-03T12:33:02;1.60;;;1.50;;
2658;SDS011;1339;53.304;10.406;2022-07-03T12:35:29;1.67;;;1.57;;
2658;SDS011;1339;53.304;10.406;2022-07-03T12:37:56;1.97;;;1.40;;
2658;SDS011;1339;53.304;10.406;2022-07-03T12:40:24;1.30;;;1.20;;
2658;SDS011;1339;53.304;10.406;2022-07-03T12:42:51;1.70;;;1.27;;
2658;SDS011;1339;53.304;10.406;2022-07-03T12:45:19;2.43;;;1.30;;
2658;SDS011;1339;53.304;10.406;2022-07-03T12:47:57;3.20;;;1.43;;
2658;SDS011;1339;53.304;10.406;2022-07-03T12:50:24;2.40;;;1.40;;
2658;SDS011;1339;53.304;10.406;2022-07-03T12:52:52;3.13;;;1.30;;
2658;SDS011;1339;53.304;10.406;2022-07-03T12:55:23;1.33;;;1.20;;
2658;SDS011;1339;53.304;10.406;2022-07-03T13:00:50;1.73;;;1.50;;
2658;SDS011;1339;53.304;10.406;2022-07-03T13:03:27;1.20;;;1.10;;
2658;SDS011;1339;53.304;10.406;2022-07-03T13:05:55;5.23;;;1.63;;
2658;SDS011;1339;53.304;10.406;2022-07-03T13:08:22;2.10;;;1.70;;
2658;SDS011;1339;53.304;10.406;2022-07-03T13:10:55;2.27;;;1.63;;
2658;SDS011;1339;53.304;10.406;2022-07-03T13:13:22;1.93;;;1.63;;
2658;SDS011;1339;53.304;10.406;2022-07-03T13:15:50;2.03;;;1.90;;
2658;SDS011;1339;53.304;10.406;2022-07-03T13:18:17;1.50;;;1.40;;
2658;SDS011;1339;53.304;10.406;2022-07-03T13:20:46;1.60;;;1.50;;
2658;SDS011;1339;53.304;10.406;2022-07-03T13:23:13;2.97;;;1.67;;
2658;SDS011;1339;53.304;10.406;2022-07-03T13:25:40;1.90;;;1.70;;
2658;SDS011;1339;53.304;10.406;2022-07-03T13:28:09;4.50;;;1.40;;
2658;SDS011;1339;53.304;10.406;2022-07-03T13:30:36;1.50;;;1.40;;
2658;SDS011;1339;53.304;10.406;2022-07-03T13:33:04;2.73;;;1.43;;
2658;SDS011;1339;53.304;10.406;2022-07-03T13:35:31;1.50;;;1.27;;
2658;SDS011;1339;53.304;10.406;2022-07-03T13:38:00;1.97;;;1.80;;
2658;SDS011;1339;53.304;10.406;2022-07-03T13:40:27;1.43;;;1.33;;
2658;SDS011;1339;53.304;10.406;2022-07-03T13:42:54;1.87;;;1.30;;
2658;SDS011;1339;53.304;10.406;2022-07-03T13:45:21;1.53;;;1.43;;
2658;SDS011;1339;53.304;10.406;2022-07-03T13:47:49;1.60;;;1.23;;
2658;SDS011;1339;53.304;10.406;2022-07-03T13:50:16;2.17;;;1.57;;
2658;SDS011;1339;53.304;10.406;2022-07-03T13:52:43;1.93;;;1.77;;
2658;SDS011;1339;53.304;10.406;2022-07-03T13:55:11;1.30;;;1.20;;
2658;SDS011;1339;53.304;10.406;2022-07-03T13:57:39;2.07;;;1.50;;
2658;SDS011;1339;53.304;10.406;2022-07-03T14:00:07;1.60;;;1.20;;
2658;SDS011;1339;53.304;10.406;2022-07-03T14:02:35;2.33;;;1.60;;
2658;SDS011;1339;53.304;10.406;2022-07-03T14:05:02;1.53;;;1.43;;
2658;SDS011;1339;53.304;10.406;2022-07-03T14:07:29;1.67;;;1.40;;
2658;SDS011;1339;53.304;10.406;2022-07-03T14:09:56;1.57;;;1.27;;
2658;SDS011;1339;53.304;10.406;2022-07-03T14:12:25;2.60;;;1.30;;
2658;SDS011;1339;53.304;10.406;2022-07-03T14:14:52;1.47;;;1.37;;
2658;SDS011;1339;53.304;10.406;2022-07-03T14:17:19;1.30;;;1.20;;
2658;SDS011;1339;53.304;10.406;2022-07-03T14:19:46;2.90;;;1.47;;
2658;SDS011;1339;53.304;10.406;2022-07-03T14:22:13;2.13;;;1.93;;
2658;SDS011;1339;53.304;10.406;2022-07-03T14:24:40;1.70;;;1.60;;
2658;SDS011;1339;53.304;10.406;2022-07-03T14:27:08;1.23;;;1.13;;
2658;SDS011;1339;53.304;10.406;2022-07-03T14:29:54;4.80;;;1.33;;
2658;SDS011;1339;53.304;10.406;2022-07-03T14:32:39;4.47;;;1.60;;
2658;SDS011;1339;53.304;10.406;2022-07-03T14:35:06;1.13;;;0.97;;
2658;SDS011;1339;53.304;10.406;2022-07-03T14:37:34;1.97;;;1.40;;
2658;SDS011;1339;53.304;10.406;2022-07-03T14:40:01;1.23;;;1.10;;
2658;SDS011;1339;53.304;10.406;2022-07-03T14:42:28;1.87;;;1.40;;
2658;SDS011;1339;53.304;10.406;2022-07-03T14:44:57;2.23;;;1.33;;
2658;SDS011;1339;53.304;10.406;2022-07-03T14:47:24;3.30;;;1.30;;
2658;SDS011;1339;53.304;10.406;2022-07-03T14:49:51;1.80;;;1.37;;
2658;SDS011;1339;53.304;10.406;2022-07-03T14:52:18;2.03;;;1.40;;
2658;SDS011;1339;53.304;10.406;2022-07-03T14:54:45;1.77;;;1.20;;
2658;SDS011;1339;53.304;10.406;2022-07-03T14:57:23;2.70;;;1.93;;
2658;SDS011;1339;53.304;10.406;2022-07-03T15:00:02;1.50;;;1.20;;
2658;SDS011;1339;53.304;10.406;2022-07-03T15:02:32;1.40;;;1.10;;
2658;SDS011;1339;53.304;10.406;2022-07-03T15:05:02;1.33;;;1.07;;
2658;SDS011;1339;53.304;10.406;2022-07-03T15:07:34;3.33;;;1.70;;
2658;SDS011;1339;53.304;10.406;2022-07-03T15:10:02;2.60;;;1.40;;
2658;SDS011;1339;53.304;10.406;2022-07-03T15:12:29;1.87;;;1.27;;
2658;SDS011;1339;53.304;10.406;2022-07-03T15:14:57;2.23;;;1.17;;
2658;SDS011;1339;53.304;10.406;2022-07-03T15:17:25;1.50;;;1.20;;
2658;SDS011;1339;53.304;10.406;2022-07-03T15:19:54;1.20;;;1.10;;
2658;SDS011;1339;53.304;10.406;2022-07-03T15:22:21;1.40;;;1.23;;
2658;SDS011;1339;53.304;10.406;2022-07-03T15:24:49;1.67;;;1.00;;
2658;SDS011;1339;53.304;10.406;2022-07-03T15:27:18;4.43;;;1.10;;